createdAt,value
2022-10-14T00:04:03.194Z,7.03
2022-10-14T00:14:55.224Z,6.03
2022-10-14T00:20:08.152Z,8.05
2022-10-14T00:25:20.436Z,16.98
2022-10-14T00:30:33.224Z,12.80
2022-10-14T00:35:57.671Z,11.20
2022-10-14T00:41:09.002Z,12.15
2022-10-14T00:46:19.321Z,9.98
2022-10-14T00:51:38.601Z,10.40
2022-10-14T00:56:43.268Z,11.10
2022-10-14T01:01:53.205Z,12.27
2022-10-14T01:07:19.323Z,9.82
2022-10-14T01:12:57.109Z,9.52
2022-10-14T01:18:26.699Z,10.55
2022-10-14T01:23:49.341Z,8.50
2022-10-14T01:29:11.624Z,7.85
2022-10-14T01:34:24.548Z,7.53
2022-10-14T01:39:33.898Z,6.93
2022-10-14T01:44:48.085Z,7.40
2022-10-14T01:50:09.092Z,7.40
2022-10-14T01:55:18.438Z,6.13
2022-10-14T02:00:23.616Z,7.80
2022-10-14T02:05:46.860Z,7.90
2022-10-14T02:11:21.930Z,6.32
2022-10-14T02:16:37.319Z,7.43
2022-10-14T02:21:54.190Z,6.55
2022-10-14T02:27:17.775Z,5.38
2022-10-14T02:32:27.429Z,5.53
2022-10-14T02:37:33.135Z,4.93
2022-10-14T02:42:39.442Z,5.22
2022-10-14T02:47:41.677Z,6.65
2022-10-14T02:52:46.780Z,5.20
2022-10-14T02:57:51.623Z,7.28
2022-10-14T03:02:55.185Z,6.82
2022-10-14T03:07:59.080Z,5.55
2022-10-14T03:13:07.021Z,6.80
2022-10-14T03:18:18.631Z,6.05
2022-10-14T03:23:49.185Z,7.03
2022-10-14T03:28:55.143Z,6.00
2022-10-14T03:34:06.917Z,7.10
2022-10-14T03:39:14.255Z,7.63
2022-10-14T03:44:25.642Z,7.55
2022-10-14T03:50:06.305Z,6.03
2022-10-14T03:55:23.478Z,5.68
2022-10-14T04:00:39.711Z,6.28
2022-10-14T04:05:56.228Z,5.80
2022-10-14T04:11:03.913Z,4.95
2022-10-14T04:16:14.246Z,4.93
2022-10-14T04:21:33.281Z,5.10
2022-10-14T04:26:39.675Z,4.20
2022-10-14T04:31:53.731Z,5.55
2022-10-14T04:36:58.944Z,4.68
2022-10-14T04:42:21.513Z,4.35
2022-10-14T04:47:31.580Z,3.22
2022-10-14T04:52:43.012Z,2.60
2022-10-14T04:57:49.309Z,2.00
2022-10-14T05:03:00.986Z,2.03
2022-10-14T05:08:19.868Z,1.80
2022-10-14T05:13:26.433Z,1.45
2022-10-14T05:18:43.798Z,1.00
2022-10-14T05:23:52.549Z,0.75
2022-10-14T05:29:05.943Z,0.63
2022-10-14T05:34:13.631Z,0.90
2022-10-14T05:39:25.581Z,0.70
2022-10-14T05:44:32.246Z,0.70
2022-10-14T05:49:36.304Z,0.98
2022-10-14T05:54:46.710Z,0.90
2022-10-14T05:59:56.221Z,0.95
2022-10-14T06:05:06.074Z,0.70
2022-10-14T06:10:14.291Z,0.63
2022-10-14T06:15:18.468Z,1.00
2022-10-14T06:20:26.733Z,0.95
2022-10-14T06:25:31.408Z,0.60
2022-10-14T06:30:53.652Z,0.60
2022-10-14T06:36:05.092Z,0.52
2022-10-14T06:41:16.038Z,0.82
2022-10-14T06:46:28.042Z,0.77
2022-10-14T06:51:34.079Z,0.60
2022-10-14T06:56:48.189Z,1.30
2022-10-14T07:01:51.667Z,1.98
2022-10-14T07:06:55.227Z,1.90
2022-10-14T07:11:59.239Z,2.00
2022-10-14T07:17:02.195Z,2.80
2022-10-14T07:22:07.108Z,4.50
2022-10-14T07:27:10.984Z,3.13
2022-10-14T07:32:13.169Z,2.65
2022-10-14T07:37:22.645Z,2.40
2022-10-14T07:42:53.110Z,2.05
2022-10-14T07:48:32.426Z,8.88
2022-10-14T07:53:44.941Z,7.68
2022-10-14T07:58:51.599Z,9.20
2022-10-14T08:09:13.901Z,3.65
2022-10-14T08:14:18.297Z,2.13
2022-10-14T08:19:24.837Z,2.10
2022-10-14T08:24:28.420Z,1.70
2022-10-14T08:29:34.183Z,1.50
2022-10-14T08:34:37.276Z,1.95
2022-10-14T08:39:44.988Z,1.10
2022-10-14T08:45:53.845Z,1.50
2022-10-14T08:51:19.221Z,3.38
2022-10-14T08:56:23.097Z,3.33
2022-10-14T09:01:42.317Z,3.25
2022-10-14T09:06:50.493Z,2.50
2022-10-14T09:12:07.622Z,2.83
2022-10-14T09:17:31.593Z,2.53
2022-10-14T09:22:37.380Z,2.08
2022-10-14T09:27:51.831Z,1.50
2022-10-14T09:33:07.548Z,2.25
2022-10-14T09:38:13.977Z,3.33
2022-10-14T09:43:20.280Z,3.78
2022-10-14T09:48:50.255Z,3.67
2022-10-14T09:53:56.306Z,3.75
2022-10-14T09:59:01.652Z,3.92
2022-10-14T10:04:31.929Z,4.95
2022-10-14T10:09:34.623Z,3.38
2022-10-14T10:14:37.865Z,3.78
2022-10-14T10:19:51.602Z,2.63
2022-10-14T10:25:03.751Z,2.78
2022-10-14T10:30:15.095Z,2.15
2022-10-14T10:35:32.218Z,2.50
2022-10-14T10:41:07.049Z,2.78
2022-10-14T10:46:37.503Z,2.95
2022-10-14T10:52:09.282Z,1.42
2022-10-14T10:57:59.287Z,1.80
2022-10-14T11:03:44.001Z,1.40
2022-10-14T11:09:24.354Z,1.75
2022-10-14T11:14:46.633Z,2.25
2022-10-14T11:20:46.193Z,2.33
2022-10-14T11:26:23.701Z,0.82
2022-10-14T11:32:05.517Z,1.25
2022-10-14T11:37:32.117Z,0.63
2022-10-14T11:42:49.177Z,0.80
2022-10-14T11:47:57.866Z,0.55
2022-10-14T11:53:26.167Z,0.30
2022-10-14T12:04:08.511Z,0.65
2022-10-14T12:09:26.484Z,0.40
2022-10-14T12:14:45.677Z,0.90
2022-10-14T12:19:59.088Z,0.60
2022-10-14T12:25:18.152Z,0.30
2022-10-14T12:30:37.595Z,1.20
2022-10-14T12:35:47.598Z,0.75
2022-10-14T12:40:55.613Z,0.70
2022-10-14T12:45:58.901Z,0.52
2022-10-14T12:51:23.164Z,1.08
2022-10-14T12:57:04.685Z,0.65
2022-10-14T13:02:22.343Z,0.73
2022-10-14T13:07:40.094Z,0.70
2022-10-14T13:12:44.871Z,0.63
2022-10-14T13:17:52.453Z,0.13
2022-10-14T13:23:15.328Z,0.20
2022-10-14T13:28:28.969Z,0.73
2022-10-14T13:33:56.146Z,0.28
2022-10-14T13:39:08.064Z,0.70
2022-10-14T13:44:15.321Z,0.60
2022-10-14T13:49:32.585Z,0.50
2022-10-14T13:54:35.461Z,0.98
2022-10-14T14:00:19.158Z,1.63
2022-10-14T14:05:20.570Z,2.30
2022-10-14T14:11:17.183Z,2.93
2022-10-14T14:21:58.456Z,3.08
2022-10-14T14:44:58.655Z,2.78
2022-10-14T14:50:29.876Z,1.85
2022-10-14T14:56:11.847Z,1.73
2022-10-14T15:01:31.757Z,4.10
2022-10-14T15:06:58.765Z,2.10
2022-10-14T15:12:34.394Z,6.72
2022-10-14T15:17:50.867Z,4.70
2022-10-14T15:23:52.404Z,1.67
2022-10-14T15:29:11.500Z,1.33
2022-10-14T15:34:23.423Z,1.20
2022-10-14T15:39:30.742Z,1.85
2022-10-14T15:44:47.016Z,1.27
2022-10-14T20:02:40.712Z,4.25
2022-10-14T20:08:34.390Z,6.05
2022-10-14T20:21:21.793Z,6.80
2022-10-14T20:26:45.464Z,6.72
2022-10-14T20:31:52.232Z,8.80
2022-10-14T20:42:30.061Z,4.47
2022-10-14T20:47:44.843Z,5.07
2022-10-14T20:52:51.214Z,4.40
2022-10-14T20:57:55.420Z,4.18
2022-10-14T21:02:58.915Z,3.58
2022-10-14T21:08:08.156Z,2.80
2022-10-14T21:13:14.453Z,3.05
2022-10-14T21:18:19.777Z,5.60
2022-10-14T21:23:26.659Z,4.32
2022-10-14T21:28:29.867Z,4.93
2022-10-14T21:33:33.707Z,3.42
2022-10-14T21:38:37.059Z,8.05
2022-10-14T21:43:45.190Z,5.05
2022-10-14T21:48:59.655Z,7.03
2022-10-14T21:54:04.201Z,5.90
2022-10-14T21:59:07.807Z,7.13
2022-10-14T22:04:12.000Z,9.55
2022-10-14T22:09:17.071Z,10.60
2022-10-14T22:14:19.646Z,12.40
2022-10-14T22:19:23.531Z,20.75
2022-10-14T22:24:26.015Z,17.50
2022-10-14T22:34:48.936Z,13.52
2022-10-14T22:46:07.863Z,11.05
2022-10-14T22:51:46.137Z,10.85
2022-10-14T23:03:42.011Z,10.68
2022-10-14T23:08:50.743Z,7.30
2022-10-14T23:19:33.758Z,7.05
2022-10-14T23:25:08.733Z,5.80
